Aviation Digital Data Service (ADDS)

Output produced by TAFs form (1118 UTC 22 December 2014)
found at http://aviationweather.gov/adds/tafs/
 
KCNY 220539Z 2206/2306 27007KT P6SM SCT030 BKN080 
     FM221200 30010KT P6SM OVC050 WS020/32035KT 
     FM221800 32012G20KT P6SM VCSH OVC040 
     FM222100 30020G30KT P6SM SCT040 SCT200 
     FM230400 30008KT P6SM SCT050